createdAt,value
2023-04-19T00:04:04.829Z,17.93
2023-04-19T00:08:22.631Z,17.75
2023-04-19T00:12:40.342Z,17.88
2023-04-19T00:16:57.975Z,18.16
2023-04-19T00:21:15.913Z,17.80
2023-04-19T00:25:36.333Z,17.97
2023-04-19T00:29:54.006Z,17.82
2023-04-19T00:34:11.566Z,17.83
2023-04-19T00:38:29.260Z,18.02
2023-04-19T00:42:46.766Z,17.80
2023-04-19T00:47:05.437Z,18.15
2023-04-19T00:51:23.433Z,17.78
2023-04-19T00:55:41.197Z,17.78
2023-04-19T00:59:59.127Z,17.75
2023-04-19T01:04:17.589Z,17.73
2023-04-19T01:08:35.367Z,17.98
2023-04-19T01:12:53.193Z,17.74
2023-04-19T01:17:11.608Z,17.80
2023-04-19T01:21:32.831Z,17.70
2023-04-19T01:25:50.428Z,17.68
2023-04-19T01:30:09.025Z,17.88
2023-04-19T01:34:26.537Z,17.76
2023-04-19T01:38:44.274Z,17.85
2023-04-19T01:43:01.742Z,17.64
2023-04-19T01:47:20.177Z,17.73
2023-04-19T01:51:39.273Z,17.77
2023-04-19T01:55:56.753Z,17.61
2023-04-19T02:00:15.525Z,17.96
2023-04-19T02:04:34.861Z,17.72
2023-04-19T02:08:52.855Z,17.70
2023-04-19T02:13:10.504Z,17.63
2023-04-19T02:17:28.989Z,17.61
2023-04-19T02:21:46.695Z,17.88
2023-04-19T02:26:04.386Z,17.74
2023-04-19T02:30:22.165Z,17.90
2023-04-19T02:34:40.062Z,17.60
2023-04-19T02:38:59.631Z,17.69
2023-04-19T02:43:17.155Z,17.56
2023-04-19T02:47:34.829Z,17.59
2023-04-19T02:51:53.171Z,17.95
2023-04-19T02:56:10.702Z,17.55
2023-04-19T03:00:28.468Z,17.88
2023-04-19T03:04:47.437Z,17.54
2023-04-19T03:09:05.067Z,17.62
2023-04-19T03:13:22.584Z,17.55
2023-04-19T03:17:40.362Z,17.54
2023-04-19T03:21:57.875Z,17.88
2023-04-19T03:26:15.570Z,17.57
2023-04-19T03:30:33.112Z,17.99
2023-04-19T03:34:50.914Z,17.54
2023-04-19T03:39:08.494Z,17.67
2023-04-19T03:43:26.250Z,17.61
2023-04-19T03:47:43.795Z,17.63
2023-04-19T03:52:01.439Z,17.95
2023-04-19T03:56:18.965Z,17.50
2023-04-19T04:00:37.466Z,17.73
2023-04-19T04:04:55.710Z,17.56
2023-04-19T04:09:13.236Z,17.52
2023-04-19T04:13:30.960Z,17.58
2023-04-19T04:17:48.501Z,17.64
2023-04-19T04:22:07.466Z,17.89
2023-04-19T04:26:25.710Z,17.69
2023-04-19T04:30:43.452Z,17.82
2023-04-19T04:35:00.977Z,17.66
2023-04-19T04:39:19.118Z,17.64
2023-04-19T04:43:36.668Z,17.73
2023-04-19T04:47:54.355Z,17.62
2023-04-19T04:52:12.108Z,17.83
2023-04-19T04:56:31.296Z,17.65
2023-04-19T05:00:49.262Z,17.79
2023-04-19T05:05:07.404Z,17.67
2023-04-19T05:09:25.129Z,17.71
2023-04-19T05:13:42.828Z,17.93
2023-04-19T05:18:00.362Z,17.79
2023-04-19T05:22:18.313Z,18.03
2023-04-19T05:26:36.097Z,17.77
2023-04-19T05:30:53.822Z,17.97
2023-04-19T05:35:11.611Z,17.83
2023-04-19T05:39:29.582Z,17.87
2023-04-19T05:43:47.134Z,18.08
2023-04-19T05:48:05.335Z,17.88
2023-04-19T05:52:22.893Z,18.23
2023-04-19T05:56:40.854Z,17.97
2023-04-19T06:00:58.439Z,18.07
2023-04-19T06:05:16.730Z,17.90
2023-04-19T06:09:34.658Z,18.10
2023-04-19T06:13:52.364Z,18.11
2023-04-19T06:18:18.970Z,18.09
2023-04-19T06:22:45.218Z,18.42
2023-04-19T06:27:02.944Z,18.13
2023-04-19T06:31:20.688Z,18.42
2023-04-19T06:35:38.610Z,18.13
2023-04-19T06:39:56.114Z,18.09
2023-04-19T06:44:14.246Z,17.92
2023-04-19T06:48:34.496Z,18.00
2023-04-19T06:52:52.257Z,17.95
2023-04-19T06:57:09.917Z,17.94
2023-04-19T07:01:27.699Z,18.00
2023-04-19T07:05:45.688Z,17.86
2023-04-19T07:10:03.666Z,18.03
2023-04-19T07:14:21.268Z,17.92
2023-04-19T07:18:39.106Z,17.99
2023-04-19T07:22:56.612Z,17.93
2023-04-19T07:27:15.031Z,18.00
2023-04-19T07:31:32.678Z,18.15
2023-04-19T07:35:50.372Z,18.07
2023-04-19T07:40:08.704Z,18.36
2023-04-19T07:44:26.324Z,18.12
2023-04-19T07:48:43.896Z,18.20
2023-04-19T07:53:01.683Z,18.12
2023-04-19T07:57:19.224Z,18.34
2023-04-19T08:01:37.492Z,18.31
2023-04-19T08:05:55.314Z,18.41
2023-04-19T08:10:13.780Z,18.30
2023-04-19T08:14:40.493Z,18.39
2023-04-19T08:19:01.744Z,18.71
2023-04-19T08:23:25.781Z,18.39
2023-04-19T08:27:47.227Z,18.67
2023-04-19T08:32:06.744Z,18.64
2023-04-19T08:36:35.953Z,18.51
2023-04-19T08:40:55.612Z,18.41
2023-04-19T08:49:41.373Z,18.74
2023-04-19T08:54:04.177Z,18.36
2023-04-19T08:58:32.869Z,18.52
2023-04-19T09:02:59.526Z,18.42
2023-04-19T09:07:28.651Z,18.45
2023-04-19T09:11:46.422Z,18.60
2023-04-19T09:16:05.781Z,18.40
2023-04-19T09:20:39.936Z,18.69
2023-04-19T09:29:21.515Z,18.40
2023-04-19T09:33:42.532Z,18.43
2023-04-19T09:42:42.229Z,18.43
2023-04-19T09:46:59.870Z,18.38
2023-04-19T09:51:18.010Z,18.42
2023-04-19T09:55:48.887Z,18.20
2023-04-19T10:00:18.612Z,18.25
2023-04-19T10:04:54.609Z,18.12
2023-04-19T10:09:15.939Z,18.13
2023-04-19T10:13:33.765Z,18.30
2023-04-19T10:17:53.173Z,18.13
2023-04-19T10:22:11.772Z,18.31
2023-04-19T10:26:29.395Z,18.13
2023-04-19T10:30:56.003Z,18.12
2023-04-19T10:35:31.764Z,18.31
2023-04-19T10:39:49.274Z,17.97
2023-04-19T10:44:12.410Z,18.25
2023-04-19T10:48:30.890Z,17.94
2023-04-19T10:52:48.553Z,18.14
2023-04-19T10:57:11.660Z,18.02
2023-04-19T11:01:43.547Z,18.01
2023-04-19T11:06:21.547Z,17.95
2023-04-19T11:10:39.473Z,17.91
2023-04-19T11:15:00.157Z,18.27
2023-04-19T11:19:19.271Z,17.94
2023-04-19T11:23:37.396Z,18.24
2023-04-19T11:27:55.929Z,17.87
2023-04-19T11:32:13.638Z,17.99
2023-04-19T11:36:37.023Z,17.91
2023-04-19T11:41:02.441Z,17.94
2023-04-19T11:45:46.674Z,18.34
2023-04-19T11:50:43.083Z,17.93
2023-04-19T11:55:18.736Z,18.07
2023-04-19T11:59:37.422Z,18.16
2023-04-19T12:03:59.071Z,18.24
2023-04-19T12:08:16.950Z,18.48
2023-04-19T12:12:34.595Z,18.38
2023-04-19T12:17:12.533Z,18.46
2023-04-19T12:21:34.326Z,18.25
2023-04-19T12:25:51.985Z,18.35
2023-04-19T12:30:10.130Z,18.39
2023-04-19T12:34:28.279Z,18.31
2023-04-19T12:38:46.017Z,18.46
2023-04-19T12:43:03.882Z,18.24
2023-04-19T12:47:21.443Z,18.51
2023-04-19T12:51:39.172Z,18.22
2023-04-19T12:55:56.690Z,18.44
2023-04-19T13:00:14.845Z,18.17
2023-04-19T13:04:32.531Z,18.25
2023-04-19T13:08:50.970Z,18.47
2023-04-19T13:13:08.764Z,18.11
2023-04-19T13:17:26.426Z,18.28
2023-04-19T13:21:44.893Z,18.08
2023-04-19T13:26:02.721Z,18.16
2023-04-19T13:30:20.426Z,18.09
2023-04-19T13:34:40.550Z,18.08
2023-04-19T13:38:58.224Z,18.26
2023-04-19T13:43:15.864Z,17.97
2023-04-19T13:47:33.380Z,18.16
2023-04-19T13:51:51.207Z,17.88
2023-04-19T13:56:11.601Z,17.95
2023-04-19T14:00:29.399Z,17.88
2023-04-19T14:04:47.063Z,17.91
2023-04-19T14:09:04.781Z,18.01
2023-04-19T14:13:22.150Z,17.90
2023-04-19T14:17:39.920Z,18.11
2023-04-19T14:21:57.690Z,18.00
2023-04-19T14:26:15.401Z,18.08
2023-04-19T14:30:33.105Z,17.92
2023-04-19T14:34:51.715Z,17.93
2023-04-19T14:39:09.738Z,17.99
2023-04-19T14:43:27.368Z,18.00
2023-04-19T14:47:45.760Z,18.42
2023-04-19T14:52:04.940Z,18.20
2023-04-19T14:56:22.712Z,18.42
2023-04-19T15:00:40.279Z,18.29
2023-04-19T15:04:58.239Z,18.32
2023-04-19T15:09:16.586Z,18.29
2023-04-19T15:13:35.892Z,18.21
2023-04-19T15:17:53.530Z,18.30
2023-04-19T15:22:11.557Z,18.30
2023-04-19T15:26:28.959Z,18.67
2023-04-19T15:31:01.706Z,18.67
2023-04-19T15:35:19.350Z,18.67
2023-04-19T15:39:36.985Z,18.45
2023-04-19T15:43:55.046Z,18.41
2023-04-19T15:48:12.911Z,18.43
2023-04-19T15:52:30.832Z,18.21
2023-04-19T15:56:48.552Z,18.19
2023-04-19T16:01:12.356Z,18.05
2023-04-19T16:05:30.921Z,18.11
2023-04-19T16:09:48.446Z,17.97
2023-04-19T16:14:06.467Z,18.04
2023-04-19T16:18:24.031Z,18.22
2023-04-19T16:22:41.695Z,17.94
2023-04-19T16:26:59.205Z,18.07
2023-04-19T16:31:16.887Z,17.83
2023-04-19T16:35:34.574Z,17.88
2023-04-19T16:39:52.285Z,17.79
2023-04-19T16:44:10.071Z,17.78
2023-04-19T16:48:27.808Z,17.99
2023-04-19T16:52:45.348Z,17.77
2023-04-19T16:57:03.361Z,18.02
2023-04-19T17:01:20.889Z,17.72
2023-04-19T17:05:38.545Z,17.88
2023-04-19T17:09:56.658Z,17.74
2023-04-19T17:14:14.720Z,17.75
2023-04-19T17:18:32.649Z,17.80
2023-04-19T17:22:50.191Z,17.70
2023-04-19T17:27:07.952Z,18.04
2023-04-19T17:31:25.593Z,17.67
2023-04-19T17:35:43.461Z,18.02
2023-04-19T17:40:02.158Z,17.63
2023-04-19T17:44:19.835Z,17.82
2023-04-19T17:48:37.582Z,17.63
2023-04-19T17:52:55.347Z,17.67
2023-04-19T17:57:13.067Z,17.91
2023-04-19T18:01:32.184Z,17.55
2023-04-19T18:05:49.905Z,17.94
2023-04-19T18:10:08.067Z,17.57
2023-04-19T18:14:25.941Z,17.82
2023-04-19T18:18:43.680Z,17.58
2023-04-19T18:23:01.979Z,17.70
2023-04-19T18:27:19.793Z,17.52
2023-04-19T18:31:37.630Z,17.65
2023-04-19T18:35:55.225Z,17.79
2023-04-19T18:40:13.276Z,17.56
2023-04-19T18:48:51.415Z,17.55
2023-04-19T18:53:08.945Z,17.63
2023-04-19T18:57:27.868Z,17.50
2023-04-19T19:01:46.009Z,17.61
2023-04-19T19:06:04.309Z,17.59
2023-04-19T19:10:26.689Z,17.57
2023-04-19T19:14:59.790Z,17.86
2023-04-19T19:19:17.822Z,17.51
2023-04-19T19:23:38.404Z,17.62
2023-04-19T19:28:06.200Z,17.52
2023-04-19T19:32:24.715Z,17.55
2023-04-19T19:36:43.889Z,17.88
2023-04-19T19:45:29.772Z,17.88
2023-04-19T19:50:31.358Z,17.44
2023-04-19T19:54:27.780Z,17.65
2023-04-19T19:58:50.038Z,17.54
2023-04-19T20:03:09.396Z,17.57
2023-04-19T20:07:42.314Z,17.92
2023-04-19T20:12:05.181Z,17.41
2023-04-19T20:16:23.615Z,17.71
2023-04-19T20:20:41.153Z,17.44
2023-04-19T20:25:00.034Z,17.63
2023-04-19T20:29:17.873Z,17.52
2023-04-19T20:33:35.699Z,17.51
2023-04-19T20:37:54.671Z,17.58
2023-04-19T20:42:12.280Z,17.41
2023-04-19T20:46:30.102Z,17.80
2023-04-19T20:50:47.987Z,17.54
2023-04-19T20:55:06.258Z,17.82
2023-04-19T20:59:23.809Z,17.55
2023-04-19T21:03:41.623Z,17.61
2023-04-19T21:07:59.531Z,17.41
2023-04-19T21:12:18.188Z,17.51
2023-04-19T21:16:35.839Z,17.68
2023-04-19T21:20:53.453Z,17.50
2023-04-19T21:25:12.697Z,17.72
2023-04-19T21:29:30.352Z,17.45
2023-04-19T21:33:47.943Z,17.54
2023-04-19T21:38:06.149Z,17.44
2023-04-19T21:42:23.884Z,17.57
2023-04-19T21:46:41.495Z,17.50
2023-04-19T21:51:01.561Z,17.58
2023-04-19T21:55:19.148Z,17.78
2023-04-19T21:59:38.026Z,17.39
2023-04-19T22:03:57.319Z,17.63
2023-04-19T22:08:18.269Z,17.44
2023-04-19T22:12:42.557Z,17.59
2023-04-19T22:17:06.522Z,17.55
2023-04-19T22:21:25.073Z,17.36
2023-04-19T22:25:42.780Z,17.76
2023-04-19T22:30:00.496Z,17.42
2023-04-19T22:34:18.127Z,17.66
2023-04-19T22:38:35.933Z,17.38
2023-04-19T22:42:53.448Z,17.58
2023-04-19T22:47:12.260Z,17.41
2023-04-19T22:51:30.528Z,17.41
2023-04-19T22:55:48.289Z,17.37
2023-04-19T23:00:07.199Z,17.49
2023-04-19T23:04:24.593Z,17.82
2023-04-19T23:08:42.232Z,17.41
2023-04-19T23:12:59.728Z,17.67
2023-04-19T23:17:18.452Z,17.40
2023-04-19T23:21:36.380Z,17.62
2023-04-19T23:25:53.917Z,17.43
2023-04-19T23:30:12.104Z,17.45
2023-04-19T23:34:29.771Z,17.54
2023-04-19T23:38:47.498Z,17.50
2023-04-19T23:43:05.142Z,17.77
2023-04-19T23:47:23.352Z,17.44
2023-04-19T23:51:41.121Z,17.56
2023-04-19T23:55:58.710Z,17.38
